Time;durP1;ratioP1;P1;durP2;ratioP2;P2;SDS_P1;SDS_P2;PMS_P1;PMS_P2;Temp;Humidity;BMP_temperature;BMP_pressure;BME280_temperature;BME280_humidity;BME280_pressure;Samples;Min_cycle;Max_cycle;Signal;HPM_P1;HPM_P2
2023/07/17 00:00:31;;;;;;;5.70;5.30;;;21.60;99.90;;;;;;5107948;28;21096;-77
2023/07/17 00:02:58;;;;;;;5.10;4.70;;;21.60;99.90;;;;;;5107212;28;20458;-76
2023/07/17 00:05:25;;;;;;;5.73;5.10;;;21.70;99.90;;;;;;5106203;28;21009;-79
2023/07/17 00:07:52;;;;;;;5.03;4.50;;;21.70;99.90;;;;;;5107675;28;20442;-76
2023/07/17 00:10:19;;;;;;;6.43;5.37;;;21.70;99.90;;;;;;5106508;28;20517;-77
2023/07/17 00:12:47;;;;;;;5.47;5.07;;;21.70;99.90;;;;;;5098814;28;20512;-78
2023/07/17 00:15:14;;;;;;;4.63;4.30;;;21.70;99.90;;;;;;5102265;28;20454;-76
2023/07/17 00:17:41;;;;;;;5.03;4.60;;;21.70;99.90;;;;;;5105317;28;20540;-76
2023/07/17 00:20:11;;;;;;;6.03;5.53;;;21.60;99.90;;;;;;5106259;28;20450;-79
2023/07/17 00:22:38;;;;;;;5.27;4.87;;;21.50;99.90;;;;;;5106905;28;20568;-77
2023/07/17 00:25:06;;;;;;;6.90;5.40;;;21.50;99.90;;;;;;5101454;28;20494;-76
2023/07/17 00:27:34;;;;;;;6.97;6.40;;;21.40;99.90;;;;;;5102158;28;20510;-76
2023/07/17 00:30:03;;;;;;;5.93;5.33;;;21.40;99.90;;;;;;5096439;28;21223;-77
2023/07/17 00:32:30;;;;;;;9.40;6.20;;;21.30;99.90;;;;;;5094833;28;20478;-77
2023/07/17 00:34:57;;;;;;;6.40;4.90;;;21.20;99.90;;;;;;5101708;28;20483;-76
2023/07/17 00:37:24;;;;;;;6.97;5.70;;;21.30;99.90;;;;;;5106785;28;20521;-77
2023/07/17 00:39:51;;;;;;;6.33;5.80;;;21.40;99.90;;;;;;5103164;28;20591;-77
2023/07/17 00:42:18;;;;;;;6.63;5.50;;;21.30;99.90;;;;;;5104315;28;20796;-79
2023/07/17 00:44:45;;;;;;;6.87;6.30;;;21.30;99.90;;;;;;5105986;28;20996;-79
2023/07/17 00:47:14;;;;;;;6.43;5.67;;;21.50;99.90;;;;;;5102231;28;20523;-77
2023/07/17 00:49:42;;;;;;;6.17;5.60;;;21.50;99.90;;;;;;5103446;28;20489;-76
2023/07/17 00:52:11;;;;;;;6.40;5.90;;;21.50;99.90;;;;;;5106324;28;20857;-78
2023/07/17 00:54:41;;;;;;;6.47;4.93;;;21.60;99.90;;;;;;5107115;28;20453;-77
2023/07/17 00:57:10;;;;;;;5.13;4.73;;;21.60;99.90;;;;;;5104909;28;20529;-77
2023/07/17 00:59:37;;;;;;;4.70;4.40;;;21.60;99.90;;;;;;5103824;28;21381;-78
2023/07/17 01:02:05;;;;;;;5.93;5.53;;;21.40;99.90;;;;;;5098940;28;20443;-77
2023/07/17 01:04:33;;;;;;;5.20;4.80;;;21.40;99.90;;;;;;5102302;28;20495;-77
2023/07/17 01:07:00;;;;;;;5.70;5.30;;;21.50;99.90;;;;;;5098514;28;20499;-80
2023/07/17 01:09:27;;;;;;;6.17;5.70;;;21.40;99.90;;;;;;5098887;28;20683;-81
2023/07/17 01:11:54;;;;;;;6.63;6.13;;;21.50;99.90;;;;;;5106260;28;20478;-76
2023/07/17 01:14:21;;;;;;;5.90;5.60;;;21.60;99.90;;;;;;5106844;28;20945;-77
2023/07/17 01:16:50;;;;;;;10.93;6.63;;;21.60;99.90;;;;;;5106056;28;20520;-78
2023/07/17 01:19:17;;;;;;;6.73;6.30;;;21.60;99.90;;;;;;5106996;28;20466;-77
2023/07/17 01:21:51;;;;;;;7.63;6.93;;;21.50;99.90;;;;;;5109332;28;20490;-80
2023/07/17 01:24:20;;;;;;;7.77;6.80;;;21.50;99.90;;;;;;5107011;28;20446;-76
2023/07/17 01:26:47;;;;;;;7.77;7.17;;;21.50;99.90;;;;;;5099471;28;20539;-78
2023/07/17 01:29:14;;;;;;;11.77;7.20;;;21.40;99.90;;;;;;5110608;28;20522;-77
2023/07/17 01:31:42;;;;;;;6.17;5.77;;;21.40;99.90;;;;;;5109266;28;20507;-78
2023/07/17 01:34:09;;;;;;;7.33;6.23;;;21.40;99.90;;;;;;5107807;28;20469;-77
2023/07/17 01:36:36;;;;;;;5.70;5.20;;;21.30;99.90;;;;;;5110157;28;21023;-77
2023/07/17 01:39:03;;;;;;;7.10;6.40;;;21.20;99.90;;;;;;5108475;28;20470;-79
2023/07/17 01:41:31;;;;;;;10.27;6.27;;;21.20;99.90;;;;;;5101750;28;20438;-77
2023/07/17 01:43:58;;;;;;;5.33;4.93;;;21.20;99.90;;;;;;5108502;28;20470;-77
2023/07/17 01:46:25;;;;;;;6.07;5.60;;;21.20;99.90;;;;;;5100088;28;20444;-77
2023/07/17 01:48:52;;;;;;;6.90;4.73;;;21.20;99.90;;;;;;5099120;28;20614;-77
2023/07/17 01:51:19;;;;;;;5.70;4.73;;;21.10;99.90;;;;;;5096585;28;20505;-77
2023/07/17 01:53:46;;;;;;;5.90;5.40;;;21.00;99.90;;;;;;5106884;28;20454;-77
2023/07/17 01:56:13;;;;;;;5.80;5.30;;;21.10;99.90;;;;;;5105286;28;20466;-79
2023/07/17 01:58:41;;;;;;;6.00;5.50;;;21.10;99.90;;;;;;5104738;28;20507;-80
2023/07/17 02:01:08;;;;;;;9.20;4.87;;;20.90;99.90;;;;;;5105624;28;20664;-79
2023/07/17 02:03:36;;;;;;;5.07;4.80;;;21.00;99.90;;;;;;5106719;28;20843;-80
2023/07/17 02:06:03;;;;;;;8.03;4.40;;;20.90;99.90;;;;;;5107720;28;20929;-78
2023/07/17 02:08:30;;;;;;;8.10;5.60;;;20.70;99.90;;;;;;5108024;28;20445;-77
2023/07/17 02:10:57;;;;;;;6.33;5.83;;;20.70;99.90;;;;;;5108517;28;21182;-79
2023/07/17 02:13:24;;;;;;;6.27;5.67;;;20.90;99.90;;;;;;5106995;28;20524;-78
2023/07/17 02:15:52;;;;;;;5.73;5.10;;;20.80;99.90;;;;;;5104810;28;20451;-81
2023/07/17 02:18:19;;;;;;;4.87;4.57;;;20.70;99.90;;;;;;5107892;28;20490;-81
2023/07/17 02:20:49;;;;;;;5.90;5.23;;;20.70;99.90;;;;;;5108575;28;21233;-77
2023/07/17 02:23:16;;;;;;;9.57;5.87;;;20.70;99.90;;;;;;5108875;28;20484;-80
2023/07/17 02:25:43;;;;;;;6.53;6.13;;;20.70;99.90;;;;;;5099758;28;20895;-77
2023/07/17 02:28:11;;;;;;;6.40;5.87;;;20.80;99.90;;;;;;5107417;28;20470;-77
2023/07/17 02:30:37;;;;;;;8.93;7.10;;;20.80;99.90;;;;;;5101788;28;20537;-81
2023/07/17 02:33:06;;;;;;;6.47;5.93;;;20.80;99.90;;;;;;5106210;28;20478;-80
2023/07/17 02:35:33;;;;;;;7.10;6.60;;;20.70;99.90;;;;;;5100062;28;20435;-79
2023/07/17 02:38:00;;;;;;;8.03;7.43;;;20.80;99.90;;;;;;5108213;28;20521;-78
2023/07/17 02:40:27;;;;;;;8.70;7.07;;;20.80;99.90;;;;;;5107796;28;20851;-76
2023/07/17 02:42:54;;;;;;;10.97;8.57;;;20.80;99.90;;;;;;5108047;28;21021;-77
2023/07/17 02:45:21;;;;;;;10.87;8.20;;;20.80;99.90;;;;;;5103931;28;20495;-80
2023/07/17 02:47:48;;;;;;;10.43;9.23;;;20.80;99.90;;;;;;5102878;28;20475;-79
2023/07/17 02:50:16;;;;;;;9.03;8.13;;;20.80;99.90;;;;;;5108256;28;20514;-78
2023/07/17 02:52:43;;;;;;;7.60;6.57;;;20.80;99.90;;;;;;5109124;28;20450;-78
2023/07/17 02:55:11;;;;;;;10.30;7.07;;;20.80;99.90;;;;;;5107963;28;20507;-79
2023/07/17 02:57:38;;;;;;;7.17;6.67;;;20.70;99.90;;;;;;5101800;28;20491;-77
2023/07/17 03:00:08;;;;;;;9.23;7.67;;;20.80;99.90;;;;;;5094480;28;20501;-78
2023/07/17 03:02:35;;;;;;;9.03;8.37;;;20.80;99.90;;;;;;5108386;28;20465;-78
2023/07/17 03:05:08;;;;;;;9.13;8.33;;;20.80;99.90;;;;;;5088414;28;20469;-78
2023/07/17 03:07:37;;;;;;;10.87;8.87;;;20.90;99.90;;;;;;5105569;28;20443;-80
2023/07/17 03:10:05;;;;;;;9.80;9.10;;;20.80;99.90;;;;;;5104275;28;20513;-77
2023/07/17 03:12:32;;;;;;;9.93;9.13;;;20.80;99.90;;;;;;5107995;28;20496;-78
2023/07/17 03:14:59;;;;;;;10.17;9.20;;;20.80;99.90;;;;;;5108086;28;20537;-79
2023/07/17 03:17:26;;;;;;;10.43;8.47;;;20.80;99.90;;;;;;5106863;28;20536;-80
2023/07/17 03:19:52;;;;;;;8.43;7.73;;;20.80;99.90;;;;;;5107285;28;20826;-78
2023/07/17 03:22:19;;;;;;;9.47;8.50;;;20.80;99.90;;;;;;5108436;28;20443;-78
2023/07/17 03:24:48;;;;;;;8.27;7.60;;;20.80;99.90;;;;;;5106201;28;20519;-78
2023/07/17 03:27:15;;;;;;;9.87;8.60;;;20.90;99.90;;;;;;5100545;28;20509;-77
2023/07/17 03:29:42;;;;;;;7.83;7.20;;;20.90;99.90;;;;;;5103663;28;20546;-78
2023/07/17 03:32:09;;;;;;;15.70;8.93;;;20.80;99.90;;;;;;5105375;28;20510;-78
2023/07/17 03:34:36;;;;;;;10.47;8.40;;;20.80;99.90;;;;;;5104020;28;20458;-82
2023/07/17 03:37:04;;;;;;;8.20;7.57;;;20.90;99.90;;;;;;5106527;28;20450;-80
2023/07/17 03:39:30;;;;;;;10.67;8.97;;;21.00;99.90;;;;;;5104733;28;20470;-78
2023/07/17 03:41:59;;;;;;;9.10;8.20;;;21.00;99.90;;;;;;5106740;28;21089;-78
2023/07/17 03:44:26;;;;;;;8.80;8.00;;;20.90;99.90;;;;;;5103768;28;20469;-78
2023/07/17 03:46:53;;;;;;;11.13;10.00;;;20.90;99.90;;;;;;5107258;28;20815;-81
2023/07/17 03:49:19;;;;;;;9.47;8.57;;;20.80;99.90;;;;;;5104269;28;20482;-78
2023/07/17 03:51:47;;;;;;;10.93;9.90;;;20.80;99.90;;;;;;5105841;28;20493;-79
2023/07/17 03:54:13;;;;;;;11.27;10.33;;;20.90;99.90;;;;;;5096167;28;20517;-80
2023/07/17 03:56:40;;;;;;;13.70;10.80;;;20.80;99.90;;;;;;5107047;28;20434;-77
2023/07/17 03:59:09;;;;;;;10.83;9.93;;;20.70;99.90;;;;;;5101154;28;20474;-79
2023/07/17 04:01:36;;;;;;;13.20;12.00;;;20.60;99.90;;;;;;5100282;28;20455;-77
2023/07/17 04:04:03;;;;;;;10.90;10.00;;;20.60;99.90;;;;;;5105214;28;20928;-77
2023/07/17 04:06:30;;;;;;;11.13;10.07;;;20.60;99.90;;;;;;5107106;28;20446;-76
2023/07/17 04:08:57;;;;;;;12.50;11.37;;;20.60;99.90;;;;;;5104254;28;20516;-81
2023/07/17 04:11:24;;;;;;;12.07;10.93;;;20.70;99.90;;;;;;5106748;28;20525;-76
2023/07/17 04:13:52;;;;;;;13.50;12.23;;;20.80;99.90;;;;;;5109838;28;20487;-81
2023/07/17 04:16:21;;;;;;;11.07;9.97;;;21.00;99.90;;;;;;5105951;28;20450;-78
2023/07/17 04:18:48;;;;;;;13.60;12.20;;;21.10;99.90;;;;;;5105279;28;20458;-78
2023/07/17 04:21:15;;;;;;;12.07;11.07;;;21.10;99.90;;;;;;5106733;28;20465;-78
2023/07/17 04:23:42;;;;;;;14.47;13.07;;;21.10;99.90;;;;;;5103858;28;20446;-81
2023/07/17 04:26:09;;;;;;;13.70;12.30;;;21.20;99.90;;;;;;5106368;28;20443;-78
2023/07/17 04:28:36;;;;;;;14.80;13.20;;;21.20;99.90;;;;;;5104322;28;20575;-78
2023/07/17 04:31:03;;;;;;;15.57;14.00;;;21.20;99.90;;;;;;5106545;28;20490;-77
2023/07/17 04:33:32;;;;;;;14.33;13.03;;;21.20;99.90;;;;;;5101806;28;20466;-78
2023/07/17 04:35:59;;;;;;;12.33;11.13;;;21.10;99.90;;;;;;5106782;28;20439;-77
2023/07/17 04:38:27;;;;;;;12.67;11.37;;;21.20;99.90;;;;;;5103478;28;20486;-78
2023/07/17 04:40:53;;;;;;;13.80;12.50;;;21.40;99.90;;;;;;5102939;28;20466;-81
2023/07/17 04:43:20;;;;;;;12.10;10.83;;;21.40;99.90;;;;;;5106391;28;20968;-78
2023/07/17 04:45:47;;;;;;;11.90;10.80;;;21.50;99.90;;;;;;5106740;28;20438;-79
2023/07/17 04:48:14;;;;;;;12.10;11.03;;;21.60;99.90;;;;;;5104676;28;20869;-80
2023/07/17 04:50:45;;;;;;;8.80;8.10;;;21.60;99.90;;;;;;5109518;28;20489;-78
2023/07/17 04:53:12;;;;;;;9.20;7.27;;;21.70;99.90;;;;;;5111070;28;20446;-79
2023/07/17 04:55:39;;;;;;;8.10;7.40;;;22.00;99.90;;;;;;5104596;28;20489;-77
2023/07/17 04:58:06;;;;;;;11.00;10.20;;;22.10;99.90;;;;;;5111520;28;20451;-78
2023/07/17 05:00:34;;;;;;;10.00;9.00;;;21.90;99.90;;;;;;5106197;28;20499;-76
2023/07/17 05:03:01;;;;;;;10.07;9.17;;;22.00;99.90;;;;;;5107416;28;20484;-77
2023/07/17 05:05:29;;;;;;;12.10;8.73;;;21.90;99.90;;;;;;5104516;28;20536;-77
2023/07/17 05:07:58;;;;;;;8.73;8.03;;;21.70;99.90;;;;;;5110308;28;20535;-78
2023/07/17 05:10:25;;;;;;;9.30;8.43;;;22.10;99.90;;;;;;5104124;28;20493;-77
2023/07/17 05:12:53;;;;;;;10.83;9.90;;;22.10;99.90;;;;;;5096240;28;20827;-78
2023/07/17 05:15:20;;;;;;;9.53;8.63;;;22.20;99.90;;;;;;5099418;28;20519;-77
2023/07/17 05:17:47;;;;;;;8.93;8.20;;;22.10;99.90;;;;;;5098343;28;20498;-77
2023/07/17 05:20:14;;;;;;;9.77;8.77;;;21.80;99.90;;;;;;5107183;28;20599;-79
2023/07/17 05:22:41;;;;;;;8.00;7.30;;;21.50;99.90;;;;;;5102884;28;20460;-78
2023/07/17 05:25:09;;;;;;;8.73;8.00;;;21.30;99.90;;;;;;5103615;28;21203;-78
2023/07/17 05:27:36;;;;;;;8.50;7.70;;;21.10;99.90;;;;;;5097563;27;20985;-77
2023/07/17 05:30:04;;;;;;;7.07;6.30;;;21.00;99.90;;;;;;5096227;28;20563;-78
2023/07/17 05:32:31;;;;;;;8.33;5.77;;;20.90;99.90;;;;;;5101565;28;20508;-78
2023/07/17 05:34:58;;;;;;;6.53;6.03;;;21.10;99.90;;;;;;5102403;28;20504;-78
2023/07/17 05:37:25;;;;;;;6.13;5.53;;;21.30;99.90;;;;;;5107412;28;20988;-77
2023/07/17 05:39:51;;;;;;;6.97;6.40;;;21.60;99.90;;;;;;5096183;28;20530;-78
2023/07/17 05:42:20;;;;;;;6.83;5.77;;;21.70;99.90;;;;;;5096836;28;20520;-77
2023/07/17 05:44:47;;;;;;;4.80;4.40;;;21.90;99.90;;;;;;5106046;28;20513;-79
2023/07/17 05:47:14;;;;;;;5.33;4.93;;;21.90;99.90;;;;;;5101811;28;21080;-79
2023/07/17 05:49:41;;;;;;;5.70;5.20;;;22.10;99.90;;;;;;5096963;28;20550;-79
2023/07/17 05:52:09;;;;;;;4.37;4.00;;;22.40;99.90;;;;;;5109172;28;20525;-77
2023/07/17 05:54:36;;;;;;;4.87;4.00;;;22.30;99.90;;;;;;5103041;28;20462;-77
2023/07/17 05:57:04;;;;;;;5.77;5.37;;;22.60;99.90;;;;;;5109421;28;21036;-80
2023/07/17 05:59:32;;;;;;;8.37;6.17;;;22.60;99.90;;;;;;5103593;28;20455;-79
2023/07/17 06:01:59;;;;;;;5.00;4.60;;;22.50;99.90;;;;;;5102228;28;20482;-81
2023/07/17 06:04:26;;;;;;;5.93;4.70;;;22.70;99.90;;;;;;5093220;28;20541;-78
2023/07/17 06:06:53;;;;;;;5.20;3.47;;;22.90;99.90;;;;;;5102710;28;20440;-78
2023/07/17 06:09:20;;;;;;;4.67;3.80;;;23.50;99.90;;;;;;5102304;28;20444;-80
2023/07/17 06:11:47;;;;;;;6.13;3.60;;;23.80;99.90;;;;;;5103705;28;20516;-79
2023/07/17 06:14:14;;;;;;;3.47;3.17;;;24.10;99.90;;;;;;5096677;28;20506;-78
2023/07/17 06:16:42;;;;;;;2.77;2.57;;;23.90;99.90;;;;;;5101266;28;20448;-80
2023/07/17 06:19:09;;;;;;;2.80;2.60;;;23.60;99.90;;;;;;5099724;28;20557;-80
2023/07/17 06:21:36;;;;;;;2.23;2.03;;;23.60;99.90;;;;;;5103708;28;20923;-79
2023/07/17 06:24:06;;;;;;;3.90;2.93;;;24.10;99.90;;;;;;5102200;28;20530;-81
2023/07/17 06:26:33;;;;;;;2.27;2.03;;;24.80;99.90;;;;;;5093139;28;20473;-79
2023/07/17 06:29:00;;;;;;;1.77;1.67;;;25.20;99.90;;;;;;5107759;28;20477;-78
2023/07/17 06:31:27;;;;;;;4.80;3.30;;;25.40;99.90;;;;;;5101381;28;20528;-79
2023/07/17 06:33:55;;;;;;;2.00;1.90;;;25.20;99.90;;;;;;5104511;28;20494;-79
2023/07/17 06:36:22;;;;;;;2.97;2.70;;;25.10;99.90;;;;;;5103703;28;20992;-78
2023/07/17 06:38:49;;;;;;;3.97;3.17;;;24.60;99.90;;;;;;5104881;28;20444;-78
2023/07/17 06:41:17;;;;;;;3.33;3.03;;;24.10;99.90;;;;;;5104021;28;20466;-78
2023/07/17 06:43:44;;;;;;;2.40;2.30;;;23.60;99.90;;;;;;5108831;27;20454;-77
2023/07/17 06:46:11;;;;;;;1.97;1.87;;;23.20;99.90;;;;;;5094630;28;20890;-78
2023/07/17 06:48:38;;;;;;;2.60;1.87;;;23.10;99.90;;;;;;5105803;28;20540;-79
2023/07/17 06:51:06;;;;;;;1.93;1.83;;;22.90;99.90;;;;;;5104093;28;21445;-79
2023/07/17 06:53:33;;;;;;;2.10;1.93;;;22.80;99.90;;;;;;5103577;28;21284;-79
2023/07/17 06:56:01;;;;;;;2.23;1.77;;;22.70;99.90;;;;;;5089122;28;20511;-79
2023/07/17 06:58:29;;;;;;;4.43;3.17;;;22.50;99.90;;;;;;5096047;28;20527;-79
2023/07/17 07:00:56;;;;;;;2.60;2.47;;;22.50;99.90;;;;;;5102484;28;20496;-79
2023/07/17 07:03:24;;;;;;;2.73;2.53;;;22.40;99.90;;;;;;5106760;28;20436;-82
2023/07/17 07:05:55;;;;;;;4.20;2.40;;;22.30;99.90;;;;;;5106750;28;20513;-80
2023/07/17 07:08:23;;;;;;;3.20;2.90;;;22.40;99.90;;;;;;5099598;28;20445;-81
2023/07/17 07:10:52;;;;;;;4.67;3.17;;;22.30;99.90;;;;;;5089780;28;20519;-79
2023/07/17 07:13:20;;;;;;;3.07;2.87;;;22.20;99.90;;;;;;5090339;28;20534;-80
2023/07/17 07:15:47;;;;;;;5.03;4.30;;;22.20;99.90;;;;;;5089192;28;20509;-81
2023/07/17 07:18:14;;;;;;;9.60;4.60;;;22.20;99.90;;;;;;5097729;28;20531;-79
2023/07/17 07:20:42;;;;;;;4.30;3.43;;;22.10;99.90;;;;;;5099219;28;20857;-79
2023/07/17 07:23:09;;;;;;;4.47;4.17;;;22.10;99.90;;;;;;5101154;28;20551;-79
2023/07/17 07:25:37;;;;;;;3.40;3.07;;;21.90;99.90;;;;;;5101946;28;20543;-79
2023/07/17 07:28:04;;;;;;;3.43;3.13;;;21.80;99.90;;;;;;5091382;28;20472;-78
2023/07/17 07:30:32;;;;;;;3.70;3.40;;;21.80;99.90;;;;;;5101656;28;20446;-78
2023/07/17 07:32:59;;;;;;;3.87;3.60;;;21.80;99.90;;;;;;5091370;28;20459;-77
2023/07/17 07:35:26;;;;;;;3.57;3.27;;;21.70;99.90;;;;;;5097684;28;20482;-82
2023/07/17 07:37:53;;;;;;;4.37;3.20;;;21.60;99.90;;;;;;5096257;28;20451;-79
2023/07/17 07:40:20;;;;;;;3.37;3.17;;;21.50;99.90;;;;;;5098880;28;20463;-79
2023/07/17 07:42:49;;;;;;;3.87;3.60;;;21.40;99.90;;;;;;5094191;28;20810;-79
2023/07/17 07:45:16;;;;;;;3.20;2.90;;;21.30;99.90;;;;;;5089414;28;20977;-79
2023/07/17 07:47:43;;;;;;;5.20;4.73;;;21.20;99.90;;;;;;5097740;28;20456;-82
2023/07/17 07:50:11;;;;;;;4.13;3.83;;;21.10;99.90;;;;;;5103782;28;20957;-78
2023/07/17 07:52:38;;;;;;;5.07;4.67;;;21.00;99.90;;;;;;5100688;28;20540;-80
2023/07/17 07:55:06;;;;;;;4.33;4.03;;;21.00;99.90;;;;;;5096992;28;20455;-80
2023/07/17 07:57:33;;;;;;;5.83;5.33;;;20.90;99.90;;;;;;5105642;28;20874;-79
2023/07/17 08:00:02;;;;;;;4.73;4.33;;;20.80;99.90;;;;;;5095250;28;20544;-79
2023/07/17 08:02:29;;;;;;;5.73;5.13;;;20.50;99.90;;;;;;5105985;28;20486;-79
2023/07/17 08:04:55;;;;;;;7.80;4.53;;;20.40;99.90;;;;;;5106132;28;20462;-78
2023/07/17 08:07:22;;;;;;;6.33;5.87;;;20.20;99.90;;;;;;5105991;28;20473;-81
2023/07/17 08:09:49;;;;;;;6.67;6.17;;;20.10;99.90;;;;;;5105092;28;20466;-79
2023/07/17 08:12:16;;;;;;;9.10;6.77;;;20.00;99.90;;;;;;5104151;28;20568;-78
2023/07/17 08:14:43;;;;;;;7.83;7.23;;;19.90;99.90;;;;;;5106782;28;20469;-80
2023/07/17 08:17:11;;;;;;;7.50;6.90;;;19.90;99.90;;;;;;5093512;28;20524;-78
2023/07/17 08:19:38;;;;;;;6.73;6.13;;;20.00;99.90;;;;;;5102988;28;20461;-80
2023/07/17 08:22:06;;;;;;;7.30;6.60;;;20.00;99.90;;;;;;5108644;28;20504;-81
2023/07/17 08:24:32;;;;;;;6.70;6.13;;;20.00;99.90;;;;;;5104036;28;20485;-80
2023/07/17 08:26:59;;;;;;;6.20;5.70;;;20.10;99.90;;;;;;5101499;28;20473;-84
2023/07/17 08:29:27;;;;;;;7.53;6.80;;;20.00;99.90;;;;;;5104145;28;20435;-82
2023/07/17 08:31:54;;;;;;;11.17;6.87;;;20.10;99.90;;;;;;5103446;28;20495;-79
2023/07/17 08:34:23;;;;;;;7.50;6.80;;;20.20;99.90;;;;;;5097586;28;20558;-78
2023/07/17 08:36:51;;;;;;;7.50;6.30;;;20.30;99.90;;;;;;5099678;28;20503;-81
2023/07/17 08:39:18;;;;;;;7.93;7.30;;;20.30;99.90;;;;;;5098187;28;20449;-81
2023/07/17 08:41:46;;;;;;;10.47;7.20;;;20.40;99.90;;;;;;5100446;28;20474;-79
2023/07/17 08:44:15;;;;;;;8.40;7.80;;;20.40;99.90;;;;;;5097769;28;20518;-79
2023/07/17 08:46:43;;;;;;;8.07;7.57;;;20.50;99.90;;;;;;5100543;28;20547;-77
2023/07/17 08:49:11;;;;;;;8.60;7.90;;;20.50;99.90;;;;;;5098649;28;20492;-78
2023/07/17 08:51:40;;;;;;;7.83;7.33;;;20.40;99.90;;;;;;5098107;28;20475;-80
2023/07/17 08:54:07;;;;;;;8.03;7.43;;;20.40;99.90;;;;;;5095320;28;20521;-78
2023/07/17 08:56:35;;;;;;;6.63;6.23;;;20.40;99.90;;;;;;5102901;28;20471;-78
2023/07/17 08:59:03;;;;;;;6.43;5.90;;;20.40;99.90;;;;;;5093851;28;20488;-78
2023/07/17 09:01:30;;;;;;;6.77;6.23;;;20.40;99.90;;;;;;5104347;28;20475;-80
2023/07/17 09:03:59;;;;;;;6.30;5.80;;;20.50;99.90;;;;;;5105616;28;20476;-77
2023/07/17 09:06:28;;;;;;;5.97;5.47;;;20.60;99.90;;;;;;5104298;28;20494;-77
2023/07/17 09:08:56;;;;;;;4.90;4.53;;;20.60;99.90;;;;;;5105729;28;21073;-78
2023/07/17 09:11:23;;;;;;;4.90;4.60;;;20.70;99.90;;;;;;5107479;28;21287;-75
2023/07/17 09:13:50;;;;;;;5.50;4.90;;;20.90;99.90;;;;;;5104996;28;20496;-77
2023/07/17 09:16:18;;;;;;;5.40;5.00;;;20.80;99.90;;;;;;5107400;28;20457;-78
2023/07/17 09:18:46;;;;;;;4.70;4.30;;;20.90;99.90;;;;;;5104127;28;20459;-79
2023/07/17 09:21:13;;;;;;;5.40;4.90;;;21.30;99.90;;;;;;5105833;28;20920;-81
2023/07/17 09:23:43;;;;;;;3.80;3.53;;;21.70;99.90;;;;;;5103327;28;20995;-79
2023/07/17 09:26:13;;;;;;;4.07;3.67;;;21.80;99.90;;;;;;5105355;28;20479;-82
2023/07/17 09:28:47;;;;;;;3.73;3.50;;;21.80;99.90;;;;;;5106233;28;20487;-78
2023/07/17 09:31:14;;;;;;;2.80;2.70;;;21.80;99.90;;;;;;5099128;28;20461;-77
2023/07/17 09:33:42;;;;;;;3.70;3.50;;;21.90;99.90;;;;;;5104117;28;20493;-80
2023/07/17 09:36:12;;;;;;;4.57;4.17;;;22.10;99.90;;;;;;5107464;28;20486;-77
2023/07/17 09:38:39;;;;;;;4.90;4.33;;;22.50;99.90;;;;;;5107419;28;20450;-80
2023/07/17 09:41:20;;;;;;;3.50;3.27;;;22.40;99.90;;;;;;5109731;28;20862;-78
2023/07/17 09:43:54;;;;;;;2.67;2.47;;;22.00;99.90;;;;;;5107613;28;20462;-80
2023/07/17 09:46:21;;;;;;;6.60;4.00;;;21.80;99.90;;;;;;5107735;28;20546;-76
2023/07/17 09:48:52;;;;;;;3.80;3.50;;;21.70;99.90;;;;;;5107099;28;20610;-77
2023/07/17 09:51:20;;;;;;;3.37;2.97;;;21.40;99.90;;;;;;5109216;28;20477;-78
2023/07/17 09:53:47;;;;;;;4.07;2.60;;;21.10;99.90;;;;;;5109597;28;20445;-81
2023/07/17 09:56:16;;;;;;;3.70;3.37;;;20.80;99.90;;;;;;5108461;28;20478;-77
2023/07/17 09:58:47;;;;;;;2.83;2.73;;;21.00;99.90;;;;;;5106739;28;20443;-79
2023/07/17 10:01:17;;;;;;;3.40;3.20;;;21.20;99.90;;;;;;5102158;28;20952;-78
2023/07/17 10:03:46;;;;;;;3.80;3.30;;;21.40;99.90;;;;;;5103794;28;20466;-78
2023/07/17 10:06:14;;;;;;;2.60;2.40;;;21.50;99.90;;;;;;5105122;28;21006;-80
2023/07/17 10:08:43;;;;;;;4.53;2.70;;;21.70;99.90;;;;;;5099614;28;20474;-77
2023/07/17 10:11:10;;;;;;;3.23;2.33;;;22.00;99.90;;;;;;5104473;28;20496;-79
2023/07/17 10:13:37;;;;;;;3.40;2.97;;;22.00;99.90;;;;;;5100335;28;21019;-79
2023/07/17 10:16:06;;;;;;;2.77;2.60;;;21.80;99.90;;;;;;5102289;28;20487;-78
2023/07/17 10:18:33;;;;;;;2.60;2.50;;;21.90;99.90;;;;;;5103049;28;20490;-78
2023/07/17 10:21:04;;;;;;;3.30;3.10;;;22.00;99.90;;;;;;5103590;28;20527;-78
2023/07/17 10:23:31;;;;;;;3.53;2.17;;;22.20;99.90;;;;;;5102907;28;21053;-78
2023/07/17 10:26:08;;;;;;;2.30;2.10;;;22.20;99.90;;;;;;5096961;28;21316;-80
2023/07/17 10:28:37;;;;;;;2.73;2.53;;;22.30;99.90;;;;;;5097947;28;20466;-77
2023/07/17 10:31:12;;;;;;;2.10;2.00;;;22.50;99.90;;;;;;5100113;28;20448;-78
2023/07/17 10:33:40;;;;;;;2.30;2.13;;;22.60;99.90;;;;;;5101780;28;20482;-77
2023/07/17 10:36:13;;;;;;;2.20;2.10;;;22.70;99.90;;;;;;5099818;28;21323;-82
2023/07/17 10:38:41;;;;;;;2.57;2.27;;;22.60;99.90;;;;;;5106514;28;20447;-78
2023/07/17 10:41:25;;;;;;;3.17;2.10;;;22.70;99.90;;;;;;5100999;28;20468;-80
2023/07/17 10:43:54;;;;;;;2.30;2.10;;;22.90;99.90;;;;;;5101000;28;20443;-77
2023/07/17 10:46:28;;;;;;;2.60;2.10;;;23.00;99.90;;;;;;5095432;28;20549;-77
2023/07/17 10:48:56;;;;;;;1.77;1.67;;;23.30;99.90;;;;;;5091384;28;20458;-80
2023/07/17 10:51:28;;;;;;;3.43;2.50;;;23.10;99.90;;;;;;5101651;28;20495;-80
2023/07/17 10:53:57;;;;;;;1.60;1.50;;;23.10;99.90;;;;;;5102684;28;20456;-76
2023/07/17 10:56:25;;;;;;;1.77;1.67;;;23.10;99.90;;;;;;5105671;28;20922;-77
2023/07/17 10:58:52;;;;;;;1.50;1.40;;;22.70;99.90;;;;;;5095828;28;20797;-79
2023/07/17 11:01:19;;;;;;;2.00;1.90;;;22.80;99.90;;;;;;5100466;28;20488;-78
2023/07/17 11:03:49;;;;;;;1.30;1.20;;;22.70;99.90;;;;;;5108462;28;20484;-80
2023/07/17 11:06:16;;;;;;;1.60;1.50;;;22.70;99.90;;;;;;5103061;28;20464;-77
2023/07/17 11:08:43;;;;;;;1.47;1.37;;;23.20;99.90;;;;;;5106769;28;20512;-79
2023/07/17 11:11:11;;;;;;;1.00;1.00;;;23.40;99.90;;;;;;5108263;28;20450;-81
2023/07/17 11:13:38;;;;;;;1.63;1.20;;;23.90;99.90;;;;;;5104742;28;20492;-77
2023/07/17 11:16:10;;;;;;;1.00;0.90;;;24.10;99.90;;;;;;5106301;28;21020;-77
2023/07/17 11:18:45;;;;;;;1.03;0.90;;;24.30;99.90;;;;;;5105402;28;20973;-77
2023/07/17 11:21:14;;;;;;;2.50;1.10;;;24.70;99.90;;;;;;5095707;28;20449;-80
2023/07/17 11:23:52;;;;;;;1.13;1.00;;;24.80;99.90;;;;;;5102273;28;20470;-80
2023/07/17 11:26:21;;;;;;;1.40;1.30;;;24.80;99.90;;;;;;5101445;28;20478;-78
2023/07/17 11:28:49;;;;;;;1.07;1.07;;;25.00;99.90;;;;;;5097624;28;20556;-81
2023/07/17 11:31:21;;;;;;;3.70;1.60;;;25.30;99.90;;;;;;5092541;28;20489;-80
2023/07/17 11:33:56;;;;;;;0.90;0.80;;;25.30;99.90;;;;;;5100999;27;20524;-79
2023/07/17 11:36:25;;;;;;;1.10;1.00;;;25.10;99.90;;;;;;5101352;28;20981;-78
2023/07/17 11:38:52;;;;;;;0.90;0.90;;;25.40;99.90;;;;;;5105419;28;20484;-78
2023/07/17 11:41:19;;;;;;;1.37;1.27;;;25.40;99.90;;;;;;5099682;28;20483;-78
2023/07/17 11:43:57;;;;;;;0.93;0.90;;;25.70;99.90;;;;;;5096405;28;20466;-78
2023/07/17 11:46:24;;;;;;;1.30;1.20;;;25.70;99.90;;;;;;5101882;28;20446;-82
2023/07/17 11:48:54;;;;;;;2.40;0.80;;;25.20;99.90;;;;;;5101081;28;20484;-80
2023/07/17 11:51:27;;;;;;;1.30;1.00;;;24.80;99.90;;;;;;5099597;28;20451;-81
2023/07/17 11:53:55;;;;;;;2.40;1.07;;;24.90;99.90;;;;;;5104984;28;21257;-78
2023/07/17 11:56:32;;;;;;;0.90;0.87;;;25.20;99.90;;;;;;5095082;28;21138;-77
2023/07/17 11:58:59;;;;;;;1.10;1.00;;;25.40;99.90;;;;;;5101759;28;20438;-78
2023/07/17 12:01:26;;;;;;;1.03;1.00;;;26.00;99.90;;;;;;5106243;28;20477;-78
2023/07/17 12:03:53;;;;;;;3.23;1.10;;;26.20;99.90;;;;;;5101697;28;20493;-79
2023/07/17 12:06:21;;;;;;;5.67;1.40;;;26.30;99.90;;;;;;5107101;28;20500;-83
2023/07/17 12:08:49;;;;;;;1.40;1.30;;;25.90;99.90;;;;;;5106582;28;20462;-82
2023/07/17 12:11:16;;;;;;;1.33;1.23;;;25.70;99.90;;;;;;5100277;28;20550;-78
2023/07/17 12:13:43;;;;;;;1.60;1.50;;;26.20;99.90;;;;;;5105752;27;21005;-78
2023/07/17 12:16:10;;;;;;;0.90;0.90;;;26.30;99.90;;;;;;5101826;28;20518;-82
2023/07/17 12:18:37;;;;;;;1.33;1.23;;;26.20;99.90;;;;;;5099686;28;20875;-78
2023/07/17 12:21:04;;;;;;;0.83;0.83;;;26.10;99.90;;;;;;5099502;28;20511;-79
2023/07/17 12:23:31;;;;;;;1.17;1.03;;;26.00;99.90;;;;;;5098190;28;20463;-78
2023/07/17 12:25:59;;;;;;;1.27;0.90;;;25.70;99.90;;;;;;5100628;28;21129;-80
2023/07/17 12:28:26;;;;;;;1.77;1.03;;;26.10;99.90;;;;;;5097880;28;20992;-79
2023/07/17 12:30:53;;;;;;;1.30;1.10;;;25.70;99.90;;;;;;5096159;28;20477;-78
2023/07/17 12:33:19;;;;;;;0.97;0.87;;;25.50;99.90;;;;;;5100395;28;20642;-77
2023/07/17 12:35:46;;;;;;;1.37;0.80;;;25.30;99.90;;;;;;5106958;28;20517;-81
2023/07/17 12:38:13;;;;;;;1.20;0.80;;;25.50;99.90;;;;;;5101736;28;21004;-78
2023/07/17 12:40:40;;;;;;;1.23;1.13;;;25.70;99.90;;;;;;5101283;28;20508;-80
2023/07/17 12:43:09;;;;;;;1.80;1.53;;;26.10;99.90;;;;;;5097753;28;20502;-81
2023/07/17 12:45:36;;;;;;;1.10;0.93;;;26.10;99.90;;;;;;5104299;28;20499;-79
2023/07/17 12:48:03;;;;;;;0.90;0.90;;;26.40;99.90;;;;;;5100250;28;20483;-78